createdAt,value
2023-02-02T00:01:38.509Z,3.17
2023-02-02T00:04:05.324Z,3.75
2023-02-02T00:06:32.296Z,3.40
2023-02-02T00:09:00.886Z,3.38
2023-02-02T00:11:28.417Z,3.58
2023-02-02T00:13:54.984Z,4.05
2023-02-02T00:16:35.811Z,2.90
2023-02-02T00:19:12.616Z,4.03
2023-02-02T00:21:39.691Z,2.95
2023-02-02T00:24:08.399Z,3.40
2023-02-02T00:26:35.259Z,3.28
2023-02-02T00:29:02.214Z,3.53
2023-02-02T00:31:28.669Z,3.08
2023-02-02T00:33:55.235Z,3.28
2023-02-02T00:36:22.040Z,3.83
2023-02-02T00:38:49.776Z,3.08
2023-02-02T00:41:16.782Z,3.50
2023-02-02T00:43:43.426Z,3.13
2023-02-02T00:46:14.563Z,2.70
2023-02-02T00:48:40.983Z,2.88
2023-02-02T00:51:07.505Z,2.83
2023-02-02T00:53:33.939Z,2.63
2023-02-02T00:56:00.382Z,3.03
2023-02-02T00:58:27.032Z,2.83
2023-02-02T01:00:53.539Z,2.90
2023-02-02T01:03:20.032Z,3.10
2023-02-02T01:05:46.589Z,2.35
2023-02-02T01:08:13.039Z,3.22
2023-02-02T01:10:39.490Z,2.92
2023-02-02T01:13:06.358Z,2.95
2023-02-02T01:15:32.848Z,3.20
2023-02-02T01:17:59.340Z,2.95
2023-02-02T01:20:25.964Z,3.00
2023-02-02T01:22:52.709Z,2.88
2023-02-02T01:25:19.396Z,2.67
2023-02-02T01:27:45.949Z,2.70
2023-02-02T01:30:13.025Z,3.60
2023-02-02T01:32:39.420Z,2.88
2023-02-02T01:35:06.363Z,2.97
2023-02-02T01:37:32.820Z,2.97
2023-02-02T01:39:59.648Z,2.85
2023-02-02T01:42:26.191Z,2.50
2023-02-02T01:44:52.711Z,2.90
2023-02-02T01:47:23.054Z,2.65
2023-02-02T01:49:49.785Z,2.67
2023-02-02T01:52:18.994Z,2.63
2023-02-02T01:54:50.831Z,3.35
2023-02-02T01:57:24.894Z,2.08
2023-02-02T01:59:53.025Z,2.97
2023-02-02T02:02:19.700Z,2.95
2023-02-02T02:04:47.407Z,2.80
2023-02-02T02:07:13.942Z,3.40
2023-02-02T02:09:40.374Z,2.03
2023-02-02T02:12:15.463Z,2.00
2023-02-02T02:15:03.598Z,2.45
2023-02-02T02:17:35.618Z,2.80
2023-02-02T02:20:54.891Z,2.55
2023-02-02T02:24:14.101Z,2.20
2023-02-02T02:26:49.525Z,2.38
2023-02-02T02:29:35.666Z,2.47
2023-02-02T02:32:10.931Z,2.25
2023-02-02T02:34:55.112Z,2.47
2023-02-02T02:37:36.417Z,2.72
2023-02-02T02:40:18.917Z,2.70
2023-02-02T02:42:55.574Z,2.80
2023-02-02T02:45:24.433Z,2.78
2023-02-02T02:47:52.312Z,2.38
2023-02-02T02:50:18.854Z,2.78
2023-02-02T02:52:47.659Z,3.05
2023-02-02T02:55:14.813Z,3.00
2023-02-02T02:58:15.476Z,2.58
2023-02-02T03:00:57.487Z,3.53
2023-02-02T03:03:43.118Z,3.10
2023-02-02T03:06:12.510Z,3.25
2023-02-02T03:08:55.145Z,3.42
2023-02-02T03:11:21.606Z,2.67
2023-02-02T03:13:48.885Z,2.92
2023-02-02T03:16:16.583Z,3.17
2023-02-02T03:18:43.212Z,3.40
2023-02-02T03:21:09.754Z,3.30
2023-02-02T03:23:36.103Z,3.15
2023-02-02T03:26:02.834Z,3.20
2023-02-02T03:28:29.862Z,2.92
2023-02-02T03:30:58.855Z,3.28
2023-02-02T03:33:25.317Z,3.40
2023-02-02T03:35:51.825Z,3.25
2023-02-02T03:38:18.575Z,3.72
2023-02-02T03:40:45.008Z,3.30
2023-02-02T03:43:11.565Z,3.72
2023-02-02T03:45:40.662Z,3.28
2023-02-02T03:48:07.166Z,3.90
2023-02-02T03:50:33.807Z,4.13
2023-02-02T03:53:00.286Z,4.05
2023-02-02T03:55:26.769Z,3.53
2023-02-02T03:57:53.311Z,4.85
2023-02-02T04:00:20.125Z,4.28
2023-02-02T04:02:46.633Z,4.57
2023-02-02T04:05:13.050Z,4.10
2023-02-02T04:07:39.994Z,3.92
2023-02-02T04:10:06.560Z,4.00
2023-02-02T04:12:32.924Z,4.25
2023-02-02T04:14:59.353Z,4.88
2023-02-02T04:17:25.717Z,4.00
2023-02-02T04:19:58.016Z,3.47
2023-02-02T04:22:26.079Z,3.80
2023-02-02T04:24:52.631Z,3.35
2023-02-02T04:27:19.022Z,3.70
2023-02-02T04:29:45.468Z,3.88
2023-02-02T04:32:11.957Z,3.30
2023-02-02T04:34:38.309Z,3.40
2023-02-02T04:37:04.674Z,3.97
2023-02-02T04:39:31.104Z,3.50
2023-02-02T04:41:57.501Z,2.92
2023-02-02T04:44:24.069Z,3.50
2023-02-02T04:46:50.483Z,3.67
2023-02-02T04:49:17.314Z,3.40
2023-02-02T04:51:44.068Z,3.30
2023-02-02T04:54:10.488Z,3.22
2023-02-02T04:56:36.919Z,2.97
2023-02-02T04:59:03.556Z,3.08
2023-02-02T05:01:30.750Z,2.50
2023-02-02T05:03:57.452Z,2.83
2023-02-02T05:06:23.894Z,2.58
2023-02-02T05:08:50.497Z,2.47
2023-02-02T05:11:20.052Z,2.75
2023-02-02T05:13:47.690Z,2.97
2023-02-02T05:16:14.484Z,2.30
2023-02-02T05:18:42.513Z,2.20
2023-02-02T05:21:09.469Z,2.78
2023-02-02T05:23:36.016Z,2.45
2023-02-02T05:26:02.438Z,2.05
2023-02-02T05:28:29.350Z,2.10
2023-02-02T05:30:55.809Z,2.40
2023-02-02T05:33:22.243Z,2.22
2023-02-02T05:35:49.477Z,2.45
2023-02-02T05:38:16.558Z,1.88
2023-02-02T05:40:42.943Z,1.73
2023-02-02T05:43:09.369Z,1.50
2023-02-02T05:45:35.819Z,2.00
2023-02-02T05:48:02.264Z,2.35
2023-02-02T05:50:28.643Z,1.75
2023-02-02T05:52:55.025Z,1.85
2023-02-02T05:55:21.361Z,1.80
2023-02-02T05:57:47.754Z,2.10
2023-02-02T06:00:14.462Z,2.17
2023-02-02T06:02:40.895Z,1.70
2023-02-02T06:05:07.706Z,1.70
2023-02-02T06:07:34.124Z,1.63
2023-02-02T06:10:00.475Z,2.03
2023-02-02T06:12:26.818Z,1.95
2023-02-02T06:14:53.159Z,1.65
2023-02-02T06:17:19.509Z,1.70
2023-02-02T06:19:45.873Z,2.13
2023-02-02T06:22:12.239Z,1.50
2023-02-02T06:24:38.651Z,2.00
2023-02-02T06:27:05.438Z,1.40
2023-02-02T06:29:31.822Z,1.55
2023-02-02T06:31:58.504Z,1.50
2023-02-02T06:34:24.922Z,1.65
2023-02-02T06:36:51.239Z,1.23
2023-02-02T06:39:17.619Z,1.70
2023-02-02T06:41:46.495Z,1.70
2023-02-02T06:44:15.261Z,1.27
2023-02-02T06:46:42.244Z,1.60
2023-02-02T06:49:09.052Z,1.75
2023-02-02T06:51:35.504Z,1.75
2023-02-02T06:54:03.784Z,1.30
2023-02-02T06:56:30.180Z,1.30
2023-02-02T06:58:56.645Z,2.00
2023-02-02T07:01:23.058Z,1.55
2023-02-02T07:03:51.075Z,1.65
2023-02-02T07:06:20.486Z,1.67
2023-02-02T07:08:56.017Z,1.35
2023-02-02T07:11:28.827Z,2.10
2023-02-02T07:14:01.642Z,1.35
2023-02-02T07:16:28.157Z,1.30
2023-02-02T07:18:54.619Z,1.30
2023-02-02T07:21:35.410Z,1.58
2023-02-02T07:24:02.827Z,1.67
2023-02-02T07:26:29.415Z,2.33
2023-02-02T07:28:55.889Z,2.15
2023-02-02T07:31:25.587Z,1.70
2023-02-02T07:33:52.975Z,2.03
2023-02-02T07:36:21.455Z,1.65
2023-02-02T07:38:48.686Z,1.80
2023-02-02T07:41:16.193Z,1.45
2023-02-02T07:43:42.924Z,1.75
2023-02-02T07:46:12.660Z,1.65
2023-02-02T07:48:39.638Z,1.40
2023-02-02T07:51:08.974Z,1.38
2023-02-02T07:53:35.718Z,3.90
2023-02-02T07:56:10.212Z,2.53
2023-02-02T07:58:37.243Z,1.50
2023-02-02T08:01:05.696Z,1.67
2023-02-02T08:03:32.859Z,1.70
2023-02-02T08:05:59.523Z,1.60
2023-02-02T08:08:26.100Z,1.30
2023-02-02T08:10:54.080Z,1.52
2023-02-02T08:13:20.894Z,1.33
2023-02-02T08:15:47.391Z,1.45
2023-02-02T08:18:13.853Z,2.03
2023-02-02T08:20:40.268Z,2.03
2023-02-02T08:23:13.392Z,1.90
2023-02-02T08:25:40.041Z,2.10
2023-02-02T08:28:06.376Z,1.40
2023-02-02T08:30:35.028Z,1.60
2023-02-02T08:33:01.473Z,1.80
2023-02-02T08:35:27.883Z,1.73
2023-02-02T08:37:54.292Z,1.63
2023-02-02T08:40:20.775Z,1.60
2023-02-02T08:42:51.013Z,1.40
2023-02-02T08:46:02.073Z,1.30
2023-02-02T08:48:11.605Z,1.58
2023-02-02T08:50:39.275Z,1.80
2023-02-02T08:53:06.060Z,1.40
2023-02-02T08:55:32.431Z,1.45
2023-02-02T08:57:58.771Z,1.70
2023-02-02T09:00:25.487Z,1.70
2023-02-02T09:02:51.814Z,1.50
2023-02-02T09:05:18.828Z,1.77
2023-02-02T09:07:45.791Z,2.00
2023-02-02T09:10:12.120Z,1.95
2023-02-02T09:12:38.448Z,2.67
2023-02-02T09:15:05.240Z,2.55
2023-02-02T09:17:31.583Z,2.40
2023-02-02T09:19:58.251Z,2.15
2023-02-02T09:22:24.643Z,2.33
2023-02-02T09:24:50.983Z,2.35
2023-02-02T09:27:17.310Z,3.38
2023-02-02T09:29:43.868Z,3.50
2023-02-02T09:32:10.420Z,3.00
2023-02-02T09:34:36.804Z,3.58
2023-02-02T09:37:03.342Z,2.90
2023-02-02T09:39:29.729Z,2.92
2023-02-02T09:42:20.331Z,2.45
2023-02-02T09:44:52.586Z,2.10
2023-02-02T09:47:29.433Z,2.20
2023-02-02T09:50:04.953Z,2.45
2023-02-02T09:52:41.887Z,1.80
2023-02-02T09:55:23.361Z,2.33
2023-02-02T09:57:55.463Z,2.60
2023-02-02T10:00:34.772Z,2.72
2023-02-02T10:03:09.263Z,2.33
2023-02-02T10:05:47.494Z,2.38
2023-02-02T10:08:33.868Z,2.60
2023-02-02T10:11:07.771Z,2.60
2023-02-02T10:13:37.978Z,2.40
2023-02-02T10:16:16.957Z,2.88
2023-02-02T10:18:56.910Z,3.42
2023-02-02T10:21:41.667Z,3.53
2023-02-02T10:24:21.088Z,2.88
2023-02-02T10:26:54.535Z,3.08
2023-02-02T10:29:23.949Z,3.00
2023-02-02T10:32:24.501Z,2.55
2023-02-02T10:35:10.918Z,2.83
2023-02-02T10:37:54.327Z,2.55
2023-02-02T10:41:02.018Z,2.63
2023-02-02T10:43:50.162Z,2.53
2023-02-02T10:46:22.874Z,2.60
2023-02-02T10:48:52.633Z,2.70
2023-02-02T10:51:28.875Z,2.45
2023-02-02T10:53:58.075Z,2.67
2023-02-02T10:56:39.836Z,2.65
2023-02-02T10:59:11.558Z,2.58
2023-02-02T11:01:38.014Z,2.80
2023-02-02T11:04:22.946Z,3.78
2023-02-02T11:06:49.448Z,3.13
2023-02-02T11:09:28.584Z,3.97
2023-02-02T11:12:01.270Z,4.35
2023-02-02T11:14:45.934Z,3.80
2023-02-02T11:17:26.091Z,3.42
2023-02-02T11:19:55.582Z,3.17
2023-02-02T11:22:38.379Z,2.72
2023-02-02T11:25:06.758Z,2.80
2023-02-02T11:27:39.871Z,2.83
2023-02-02T11:30:28.113Z,2.83
2023-02-02T11:32:55.710Z,2.80
2023-02-02T11:35:24.408Z,3.15
2023-02-02T11:38:03.025Z,3.00
2023-02-02T11:40:31.292Z,2.42
2023-02-02T11:43:01.140Z,2.30
2023-02-02T11:45:35.498Z,2.75
2023-02-02T11:48:16.547Z,2.65
2023-02-02T11:50:49.801Z,3.15
2023-02-02T11:53:25.041Z,2.70
2023-02-02T11:55:53.145Z,2.97
2023-02-02T11:58:29.788Z,2.75
2023-02-02T12:01:01.783Z,3.15
2023-02-02T12:03:36.894Z,3.13
2023-02-02T12:06:20.367Z,3.00
2023-02-02T12:08:47.066Z,2.80
2023-02-02T12:12:02.829Z,2.80
2023-02-02T12:14:39.753Z,2.58
2023-02-02T12:17:18.342Z,3.03
2023-02-02T12:20:13.729Z,2.80
2023-02-02T12:23:03.331Z,2.83
2023-02-02T12:25:38.550Z,2.50
2023-02-02T12:28:48.418Z,2.85
2023-02-02T12:31:30.445Z,2.42
2023-02-02T12:34:20.964Z,3.20
2023-02-02T12:37:14.505Z,2.90
2023-02-02T12:39:55.197Z,3.08
2023-02-02T12:42:49.021Z,3.20
2023-02-02T12:45:42.015Z,3.47
2023-02-02T12:48:38.593Z,3.97
2023-02-02T12:51:23.231Z,3.45
2023-02-02T12:54:33.453Z,3.50
2023-02-02T12:57:23.275Z,3.17
2023-02-02T13:00:03.067Z,3.00
2023-02-02T13:02:40.991Z,3.30
2023-02-02T13:05:10.088Z,3.15
2023-02-02T13:07:39.717Z,2.70
2023-02-02T13:10:13.590Z,3.10
2023-02-02T13:12:45.043Z,3.05
2023-02-02T13:15:18.670Z,3.20
2023-02-02T13:17:51.052Z,3.28
2023-02-02T13:20:27.845Z,3.65
2023-02-02T13:22:59.019Z,3.28
2023-02-02T13:25:30.906Z,3.22
2023-02-02T13:28:01.385Z,3.65
2023-02-02T13:30:32.905Z,3.45
2023-02-02T13:33:17.308Z,3.78
2023-02-02T13:35:54.077Z,3.45
2023-02-02T13:38:26.088Z,3.63
2023-02-02T13:41:03.413Z,3.92
2023-02-02T13:43:47.673Z,3.65
2023-02-02T13:46:29.297Z,3.67
2023-02-02T13:49:14.015Z,2.83
2023-02-02T13:51:46.356Z,2.70
2023-02-02T13:54:46.387Z,3.00
2023-02-02T13:57:48.597Z,3.08
2023-02-02T14:00:28.723Z,3.15
2023-02-02T14:03:03.745Z,3.22
2023-02-02T14:05:40.189Z,3.20
2023-02-02T14:08:21.862Z,3.05
2023-02-02T14:10:54.407Z,2.75
2023-02-02T14:13:55.648Z,2.90
2023-02-02T14:16:43.865Z,2.80
2023-02-02T14:19:16.278Z,2.92
2023-02-02T14:21:42.534Z,2.80
2023-02-02T14:24:27.314Z,2.60
2023-02-02T14:26:54.874Z,2.50
2023-02-02T14:29:33.413Z,3.13
2023-02-02T14:32:24.633Z,2.65
2023-02-02T14:34:53.624Z,2.42
2023-02-02T14:37:52.571Z,2.35
2023-02-02T14:40:48.490Z,2.50
2023-02-02T14:43:44.185Z,2.30
2023-02-02T14:46:13.601Z,2.50
2023-02-02T14:48:42.692Z,2.58
2023-02-02T14:51:25.064Z,2.38
2023-02-02T14:53:54.871Z,3.50
2023-02-02T14:56:38.681Z,2.50
2023-02-02T14:59:07.460Z,3.13
2023-02-02T15:01:36.698Z,3.08
2023-02-02T15:04:21.383Z,2.90
2023-02-02T15:06:52.409Z,3.00
2023-02-02T15:09:33.414Z,2.78
2023-02-02T15:12:02.855Z,3.35
2023-02-02T15:14:35.300Z,3.20
2023-02-02T15:17:12.427Z,3.40
2023-02-02T15:19:42.424Z,3.10
2023-02-02T15:22:35.204Z,3.22
2023-02-02T15:25:12.433Z,3.45
2023-02-02T15:27:51.493Z,3.25
2023-02-02T15:30:24.083Z,2.75
2023-02-02T15:32:52.470Z,3.28
2023-02-02T15:35:23.615Z,3.17
2023-02-02T15:37:56.785Z,3.00
2023-02-02T15:40:25.750Z,3.35
2023-02-02T15:43:09.089Z,2.70
2023-02-02T15:45:44.340Z,2.90
2023-02-02T15:48:21.106Z,3.45
2023-02-02T15:50:51.303Z,3.70
2023-02-02T15:53:23.884Z,4.00
2023-02-02T15:55:50.371Z,3.47
2023-02-02T15:58:26.071Z,3.53
2023-02-02T16:01:13.049Z,4.55
2023-02-02T16:04:08.203Z,4.93
2023-02-02T16:06:34.901Z,4.60
2023-02-02T16:09:05.684Z,4.70
2023-02-02T16:11:32.085Z,4.50
2023-02-02T16:14:02.638Z,4.20
2023-02-02T16:16:39.925Z,3.97
2023-02-02T16:19:09.378Z,7.22
2023-02-02T16:21:40.735Z,8.93
2023-02-02T16:24:15.000Z,4.70
2023-02-02T16:26:41.792Z,4.80
2023-02-02T16:29:17.194Z,3.88
2023-02-02T16:31:46.424Z,4.05
2023-02-02T16:34:18.601Z,4.20
2023-02-02T16:37:03.632Z,4.00
2023-02-02T16:39:30.012Z,3.53
2023-02-02T16:42:08.340Z,3.08
2023-02-02T16:44:40.738Z,3.70
2023-02-02T16:47:08.648Z,3.53
2023-02-02T16:49:36.029Z,3.80
2023-02-02T16:52:13.983Z,3.50
2023-02-02T16:54:51.803Z,4.00
2023-02-02T16:57:22.860Z,3.85
2023-02-02T16:59:55.538Z,4.63
2023-02-02T17:02:31.151Z,4.55
2023-02-02T17:05:10.648Z,5.20
2023-02-02T17:07:38.658Z,5.47
2023-02-02T17:10:31.061Z,7.43
2023-02-02T17:13:01.822Z,8.43
2023-02-02T17:15:32.084Z,9.23
2023-02-02T17:18:00.770Z,7.60
2023-02-02T17:20:27.967Z,7.75
2023-02-02T17:23:07.032Z,6.95
2023-02-02T17:25:41.993Z,8.40
2023-02-02T17:28:14.615Z,9.27
2023-02-02T17:30:42.924Z,7.45
2023-02-02T17:33:14.630Z,7.70
2023-02-02T17:35:53.817Z,6.30
2023-02-02T17:38:23.219Z,6.70
2023-02-02T17:40:50.582Z,6.38
2023-02-02T17:43:16.977Z,6.85
2023-02-02T17:45:43.612Z,6.82
2023-02-02T17:48:12.421Z,7.40
2023-02-02T17:50:39.853Z,7.47
2023-02-02T17:53:06.715Z,7.82
2023-02-02T17:55:37.964Z,7.78
2023-02-02T17:58:04.375Z,8.50
2023-02-02T18:00:31.704Z,9.32
2023-02-02T18:03:21.382Z,8.45
2023-02-02T18:05:48.212Z,7.72
2023-02-02T18:08:15.130Z,7.72
2023-02-02T18:10:42.965Z,8.23
2023-02-02T18:13:19.260Z,7.57
2023-02-02T18:15:46.153Z,7.50
2023-02-02T18:18:12.916Z,7.95
2023-02-02T18:20:43.162Z,8.80
2023-02-02T18:23:09.651Z,8.00
2023-02-02T18:25:37.667Z,8.50
2023-02-02T18:28:04.174Z,8.57
2023-02-02T18:30:30.637Z,8.32
2023-02-02T18:32:57.042Z,8.23
2023-02-02T18:35:23.962Z,9.93
2023-02-02T18:37:51.348Z,9.00
2023-02-02T18:40:18.555Z,8.90
2023-02-02T18:42:45.024Z,8.88
2023-02-02T18:45:11.724Z,8.85
2023-02-02T18:47:41.038Z,9.38
2023-02-02T18:50:08.240Z,9.77
2023-02-02T18:52:34.959Z,9.07
2023-02-02T18:55:01.422Z,9.60
2023-02-02T18:57:29.689Z,10.38
2023-02-02T18:59:58.475Z,9.40
2023-02-02T19:02:25.822Z,9.55
2023-02-02T19:05:11.014Z,9.30
2023-02-02T19:07:55.453Z,9.27
2023-02-02T19:10:25.064Z,9.55
2023-02-02T19:13:03.202Z,9.60
2023-02-02T19:15:37.712Z,8.82
2023-02-02T19:18:13.228Z,9.93
2023-02-02T19:20:39.693Z,8.85
2023-02-02T19:23:13.659Z,8.65
2023-02-02T19:25:41.874Z,8.75
2023-02-02T19:28:29.923Z,11.07
2023-02-02T19:30:58.968Z,9.57
2023-02-02T19:33:39.237Z,9.65
2023-02-02T19:36:13.482Z,10.27
2023-02-02T19:38:39.839Z,11.00
2023-02-02T19:41:21.491Z,10.85
2023-02-02T19:44:01.276Z,10.07
2023-02-02T19:46:30.931Z,12.10
2023-02-02T19:49:27.056Z,11.50
2023-02-02T19:51:55.768Z,11.48
2023-02-02T19:54:27.941Z,11.55
2023-02-02T19:56:58.008Z,13.30
2023-02-02T19:59:26.408Z,11.65
2023-02-02T20:01:52.841Z,12.25
2023-02-02T20:04:20.125Z,13.25
2023-02-02T20:06:58.649Z,13.50
2023-02-02T20:09:33.782Z,13.15
2023-02-02T20:12:00.432Z,13.25
2023-02-02T20:14:33.120Z,21.67
2023-02-02T20:17:07.322Z,16.15
2023-02-02T20:19:39.990Z,13.90
2023-02-02T20:22:22.883Z,13.45
2023-02-02T20:24:49.961Z,13.80
2023-02-02T20:27:18.738Z,14.05
2023-02-02T20:29:50.904Z,13.23
2023-02-02T20:32:26.621Z,13.50
2023-02-02T20:34:57.100Z,14.30
2023-02-02T20:37:33.348Z,15.98
2023-02-02T20:40:03.049Z,15.32
2023-02-02T20:42:30.124Z,15.25
2023-02-02T20:44:58.081Z,16.25
2023-02-02T20:47:24.492Z,17.45
2023-02-02T20:49:50.982Z,15.77
2023-02-02T20:52:23.736Z,16.50
2023-02-02T20:54:51.997Z,17.65
2023-02-02T20:57:19.151Z,16.98
2023-02-02T20:59:45.605Z,17.98
2023-02-02T21:02:19.424Z,16.75
2023-02-02T21:04:47.644Z,17.55
2023-02-02T21:07:17.112Z,18.17
2023-02-02T21:09:48.297Z,18.00
2023-02-02T21:12:15.135Z,18.63
2023-02-02T21:14:41.805Z,18.58
2023-02-02T21:17:15.319Z,19.92
2023-02-02T21:19:42.952Z,18.20
2023-02-02T21:22:09.511Z,18.73
2023-02-02T21:24:35.915Z,18.65
2023-02-02T21:27:04.751Z,18.73
2023-02-02T21:29:32.481Z,18.00
2023-02-02T21:32:02.126Z,19.45
2023-02-02T21:34:28.913Z,17.23
2023-02-02T21:36:59.381Z,16.77
2023-02-02T21:39:35.144Z,18.17
2023-02-02T21:42:07.672Z,17.65
2023-02-02T21:44:39.952Z,16.75
2023-02-02T21:47:24.010Z,16.77
2023-02-02T21:49:50.737Z,15.63
2023-02-02T21:52:19.076Z,15.75
2023-02-02T21:54:46.602Z,16.02
2023-02-02T21:57:26.093Z,14.73
2023-02-02T21:59:56.435Z,14.55
2023-02-02T22:02:35.048Z,15.15
2023-02-02T22:05:10.728Z,14.63
2023-02-02T22:07:37.115Z,13.63
2023-02-02T22:10:22.752Z,14.10
2023-02-02T22:12:49.110Z,13.70
2023-02-02T22:15:20.591Z,12.95
2023-02-02T22:17:47.310Z,13.65
2023-02-02T22:20:23.382Z,13.57
2023-02-02T22:22:51.595Z,13.07
2023-02-02T22:25:17.910Z,12.93
2023-02-02T22:27:53.705Z,12.82
2023-02-02T22:33:05.674Z,12.88
2023-02-02T22:35:33.345Z,12.68
2023-02-02T22:37:59.765Z,12.52
2023-02-02T22:40:27.185Z,11.48
2023-02-02T22:42:56.596Z,12.55
2023-02-02T22:45:23.696Z,12.98
2023-02-02T22:47:51.030Z,12.98
2023-02-02T22:50:19.707Z,12.15
2023-02-02T22:52:46.071Z,11.82
2023-02-02T22:55:13.289Z,12.20
2023-02-02T22:57:39.787Z,11.57
2023-02-02T23:00:13.848Z,12.13
2023-02-02T23:02:41.541Z,12.02
2023-02-02T23:05:09.879Z,11.60
2023-02-02T23:07:36.473Z,11.52
2023-02-02T23:10:02.971Z,10.93
2023-02-02T23:12:29.414Z,11.23
2023-02-02T23:14:55.840Z,11.23
2023-02-02T23:17:22.282Z,11.05
2023-02-02T23:19:48.679Z,10.77
2023-02-02T23:22:15.238Z,11.05
2023-02-02T23:24:41.986Z,10.52
2023-02-02T23:27:08.373Z,10.55
2023-02-02T23:29:34.735Z,10.38
2023-02-02T23:32:01.799Z,9.85
2023-02-02T23:34:28.224Z,10.38
2023-02-02T23:36:54.652Z,10.10
2023-02-02T23:39:21.032Z,10.18
2023-02-02T23:41:47.507Z,10.07
2023-02-02T23:44:13.932Z,10.30
2023-02-02T23:46:41.465Z,10.13
2023-02-02T23:49:08.029Z,10.05
2023-02-02T23:51:35.185Z,9.75
2023-02-02T23:54:01.828Z,10.13
2023-02-02T23:56:28.787Z,9.80
2023-02-02T23:58:55.127Z,9.52
